createdAt,value
2023-03-26T00:00:22.429Z,26.44
2023-03-26T01:00:38.083Z,26.25
2023-03-26T15:57:21.758Z,25.75
2023-03-26T16:01:22.974Z,25.70
2023-03-26T16:05:23.230Z,25.72
2023-03-26T16:09:23.368Z,25.72
2023-03-26T16:13:23.549Z,25.72
2023-03-26T16:17:23.829Z,25.74
2023-03-26T16:21:31.441Z,25.74
2023-03-26T16:25:27.764Z,25.70
2023-03-26T16:29:24.024Z,25.76
2023-03-26T16:33:23.977Z,25.78
2023-03-26T16:37:23.995Z,25.76
2023-03-26T16:41:24.052Z,25.69
2023-03-26T17:01:23.138Z,25.78
2023-03-26T17:09:23.500Z,25.79
2023-03-26T17:17:23.921Z,25.79
2023-03-26T17:25:24.331Z,25.79
2023-03-26T17:33:24.757Z,25.76
2023-03-26T20:01:32.465Z,25.85
2023-03-26T21:25:37.235Z,25.78
2023-03-26T21:29:38.405Z,25.80
2023-03-26T21:33:38.614Z,25.82
2023-03-26T21:37:38.829Z,25.84
2023-03-26T21:41:39.064Z,25.80
2023-03-26T21:45:39.352Z,25.81
2023-03-26T21:49:39.462Z,25.82
2023-03-26T21:53:39.683Z,25.81
2023-03-26T21:57:39.898Z,25.84
2023-03-26T22:01:40.186Z,25.81
2023-03-26T22:05:40.377Z,25.82
2023-03-26T22:09:40.559Z,25.82
2023-03-26T22:13:40.784Z,25.78
2023-03-26T22:17:41.031Z,25.82
2023-03-26T22:21:41.182Z,25.82
2023-03-26T22:25:41.373Z,25.79
2023-03-26T22:29:41.581Z,25.84
2023-03-26T22:33:41.871Z,25.81
2023-03-26T22:37:42.040Z,25.82
2023-03-26T22:41:42.239Z,25.84
2023-03-26T22:45:42.445Z,25.82
2023-03-26T22:49:42.693Z,25.79
2023-03-26T22:53:42.900Z,25.85
2023-03-26T22:57:43.107Z,25.81
2023-03-26T23:01:43.362Z,25.82
2023-03-26T23:56:21.769Z,25.77
